Time;durP1;ratioP1;P1;durP2;ratioP2;P2;SDS_P1;SDS_P2;PMS_P1;PMS_P2;Temp;Humidity;BMP_temperature;BMP_pressure;BME280_temperature;BME280_humidity;BME280_pressure;Samples;Min_cycle;Max_cycle;Signal;HPM_P1;HPM_P2
2022/07/20 00:00:47;;;;;;;7.88;3.63;;;21.50;67.60;;;;;;5009625;28;20078;-46
2022/07/20 00:03:13;;;;;;;11.38;3.78;;;21.50;67.00;;;;;;5006534;28;20082;-47
2022/07/20 00:05:40;;;;;;;5.82;3.58;;;21.50;67.40;;;;;;5005768;28;20045;-46
2022/07/20 00:08:06;;;;;;;5.80;3.58;;;21.40;67.40;;;;;;5006725;28;20030;-47
2022/07/20 00:13:17;;;;;;;5.60;3.65;;;21.30;68.20;;;;;;5006186;28;20041;-45
2022/07/20 00:15:43;;;;;;;6.70;3.50;;;21.30;69.20;;;;;;5005665;28;20082;-46
2022/07/20 00:18:09;;;;;;;9.35;4.80;;;21.20;68.60;;;;;;5006263;28;20022;-46
2022/07/20 00:20:35;;;;;;;7.35;4.30;;;21.20;67.80;;;;;;5006781;28;20037;-49
2022/07/20 00:23:01;;;;;;;9.48;3.92;;;21.20;68.40;;;;;;5020784;28;20101;-47
2022/07/20 00:25:27;;;;;;;8.82;3.72;;;21.20;67.80;;;;;;4991754;28;20087;-49
2022/07/20 00:27:53;;;;;;;8.75;3.90;;;21.20;68.60;;;;;;5011583;28;20302;-47
2022/07/20 00:30:18;;;;;;;7.22;4.47;;;21.10;69.40;;;;;;5024575;28;20030;-48
2022/07/20 00:32:44;;;;;;;6.25;4.45;;;21.00;70.10;;;;;;5030305;28;20047;-48
2022/07/20 00:35:12;;;;;;;6.55;3.28;;;21.00;71.10;;;;;;5009736;28;20434;-47
2022/07/20 00:37:38;;;;;;;5.35;3.78;;;20.90;70.80;;;;;;4986662;28;20038;-48
2022/07/20 00:40:04;;;;;;;9.27;4.30;;;20.80;71.30;;;;;;4986669;28;20027;-46
2022/07/20 00:42:30;;;;;;;10.25;4.03;;;20.80;71.00;;;;;;4986171;28;20027;-47
2022/07/20 00:44:56;;;;;;;6.25;4.18;;;20.70;71.30;;;;;;4985948;28;20035;-46
2022/07/20 00:47:21;;;;;;;7.80;4.07;;;20.60;71.60;;;;;;4986225;28;20026;-46
2022/07/20 00:49:47;;;;;;;8.57;3.65;;;20.60;72.10;;;;;;4986402;28;20034;-47
2022/07/20 00:52:13;;;;;;;5.25;3.63;;;20.40;72.30;;;;;;4986704;28;20031;-46
2022/07/20 00:54:39;;;;;;;9.68;4.50;;;20.50;72.30;;;;;;4986801;28;20038;-47
2022/07/20 00:57:05;;;;;;;7.72;3.92;;;20.40;73.10;;;;;;4994716;28;20018;-46
2022/07/20 00:59:30;;;;;;;8.23;3.63;;;20.30;72.70;;;;;;5043461;28;20018;-46
2022/07/20 01:01:56;;;;;;;5.50;3.80;;;20.30;72.90;;;;;;5009691;28;20069;-48
2022/07/20 01:04:22;;;;;;;7.10;3.58;;;20.30;73.40;;;;;;5008904;28;20064;-49
2022/07/20 01:06:48;;;;;;;9.30;3.60;;;20.30;73.40;;;;;;5009519;28;20483;-46
2022/07/20 01:09:15;;;;;;;6.03;3.90;;;20.20;72.80;;;;;;5009184;28;20054;-46
2022/07/20 01:11:41;;;;;;;6.00;3.80;;;20.30;72.20;;;;;;5009087;28;20073;-46
2022/07/20 01:14:07;;;;;;;5.53;4.05;;;20.20;73.10;;;;;;5008196;28;20061;-46
2022/07/20 01:16:34;;;;;;;7.90;4.15;;;20.20;72.80;;;;;;5009154;28;20047;-46
2022/07/20 01:19:00;;;;;;;6.90;3.67;;;20.20;73.00;;;;;;5009242;28;20086;-45
2022/07/20 01:21:25;;;;;;;6.65;3.63;;;20.20;72.80;;;;;;5009191;28;20490;-48
2022/07/20 01:23:51;;;;;;;7.20;4.20;;;20.20;73.80;;;;;;5008673;28;20039;-47
2022/07/20 01:26:18;;;;;;;10.38;4.43;;;20.10;74.30;;;;;;5003634;28;20033;-46
2022/07/20 01:28:43;;;;;;;6.10;3.78;;;20.00;74.20;;;;;;5041571;28;20016;-46
2022/07/20 01:31:09;;;;;;;4.40;3.40;;;20.00;74.90;;;;;;5008987;28;20051;-46
2022/07/20 01:33:35;;;;;;;11.18;4.07;;;20.00;74.80;;;;;;5003558;28;20041;-48
2022/07/20 01:36:00;;;;;;;6.40;4.50;;;20.00;73.90;;;;;;5042457;28;20018;-47
2022/07/20 01:38:26;;;;;;;8.55;4.20;;;19.90;74.60;;;;;;5008591;28;20147;-47
2022/07/20 01:40:51;;;;;;;6.45;4.00;;;19.90;75.20;;;;;;5008765;28;20026;-46
2022/07/20 01:43:17;;;;;;;10.60;4.88;;;19.90;74.30;;;;;;5009171;28;20022;-46
2022/07/20 01:45:43;;;;;;;7.03;4.07;;;19.90;75.50;;;;;;5006725;28;20468;-47
2022/07/20 01:48:09;;;;;;;6.03;4.10;;;19.80;75.60;;;;;;5008583;28;20113;-48
2022/07/20 01:50:34;;;;;;;5.47;3.72;;;19.80;75.90;;;;;;5008511;28;20038;-46
2022/07/20 01:53:00;;;;;;;5.78;4.00;;;19.70;76.20;;;;;;5008498;28;20030;-49
2022/07/20 01:55:25;;;;;;;7.35;4.50;;;19.70;76.10;;;;;;5007782;28;20044;-46
2022/07/20 01:57:51;;;;;;;8.43;4.38;;;19.60;76.40;;;;;;5008366;28;20633;-46
2022/07/20 02:00:17;;;;;;;9.90;4.20;;;19.60;77.00;;;;;;5008760;28;20099;-46
2022/07/20 02:02:42;;;;;;;4.22;3.70;;;19.60;77.10;;;;;;5008517;28;20026;-46
2022/07/20 02:05:09;;;;;;;10.82;4.05;;;19.50;77.40;;;;;;5025579;28;20481;-47
2022/07/20 02:07:35;;;;;;;6.93;4.10;;;19.50;77.40;;;;;;5019271;28;20022;-46
2022/07/20 02:10:01;;;;;;;6.53;4.38;;;19.50;77.20;;;;;;5008554;28;20022;-46
2022/07/20 02:12:26;;;;;;;10.40;4.28;;;19.50;77.00;;;;;;5007926;28;20559;-46
2022/07/20 02:14:52;;;;;;;8.82;4.45;;;19.40;76.60;;;;;;5007421;28;20079;-45
2022/07/20 02:17:17;;;;;;;6.20;3.72;;;19.40;77.50;;;;;;5007001;28;20034;-46
2022/07/20 02:19:43;;;;;;;14.73;4.78;;;19.40;77.30;;;;;;5008181;28;20113;-49
2022/07/20 02:22:08;;;;;;;6.38;3.97;;;19.40;77.20;;;;;;5017311;28;20108;-46
2022/07/20 02:24:34;;;;;;;7.75;4.45;;;19.30;77.00;;;;;;5069418;28;20284;-46
2022/07/20 02:26:59;;;;;;;6.72;4.13;;;19.40;77.20;;;;;;4988413;28;20033;-47
2022/07/20 02:29:25;;;;;;;9.38;4.20;;;19.40;76.80;;;;;;4988069;28;20080;-46
2022/07/20 02:31:50;;;;;;;6.65;4.07;;;19.40;76.70;;;;;;4998254;28;20037;-47
2022/07/20 02:34:16;;;;;;;5.82;4.15;;;19.40;76.20;;;;;;5030997;28;20030;-48
2022/07/20 02:36:41;;;;;;;7.30;4.75;;;19.40;76.10;;;;;;4988188;28;20030;-50
2022/07/20 02:39:07;;;;;;;7.20;4.47;;;19.40;75.70;;;;;;4988362;28;20058;-47
2022/07/20 02:41:34;;;;;;;6.90;4.57;;;19.50;75.20;;;;;;4988457;28;20325;-47
2022/07/20 02:44:00;;;;;;;5.60;4.43;;;19.40;76.10;;;;;;4986019;28;20483;-47
2022/07/20 02:46:25;;;;;;;9.07;4.65;;;19.40;76.70;;;;;;4988187;28;20064;-47
2022/07/20 02:48:51;;;;;;;8.15;4.40;;;19.30;76.50;;;;;;4988195;28;20071;-48
2022/07/20 02:51:16;;;;;;;5.70;4.70;;;19.30;77.10;;;;;;4988143;28;20510;-49
2022/07/20 02:53:42;;;;;;;5.53;4.45;;;19.30;77.40;;;;;;4988089;28;20080;-47
2022/07/20 02:56:08;;;;;;;8.07;4.60;;;19.30;76.20;;;;;;4987576;28;20489;-49
2022/07/20 02:58:33;;;;;;;9.80;4.40;;;19.30;75.50;;;;;;4987758;28;20593;-49
2022/07/20 03:00:58;;;;;;;8.57;4.93;;;19.30;75.80;;;;;;4987986;28;20035;-48
2022/07/20 03:03:25;;;;;;;6.18;4.80;;;19.30;75.50;;;;;;4986719;28;20110;-49
2022/07/20 03:05:51;;;;;;;7.90;4.03;;;19.20;76.40;;;;;;5040776;28;20029;-46
2022/07/20 03:08:16;;;;;;;5.47;4.22;;;19.20;76.80;;;;;;5007467;28;20041;-46
2022/07/20 03:10:42;;;;;;;5.22;4.10;;;19.20;77.00;;;;;;5006168;28;20516;-48
2022/07/20 03:13:07;;;;;;;10.30;4.50;;;19.20;77.60;;;;;;5007152;28;20030;-46
2022/07/20 03:15:33;;;;;;;8.48;4.32;;;19.10;76.90;;;;;;5006691;28;20086;-50
2022/07/20 03:17:58;;;;;;;9.65;4.65;;;19.10;77.00;;;;;;5007018;28;20233;-47
2022/07/20 03:20:30;;;;;;;5.90;4.80;;;19.00;76.80;;;;;;5007483;28;20386;-46
2022/07/20 03:22:56;;;;;;;5.85;4.65;;;19.10;77.10;;;;;;5007459;28;20014;-50
2022/07/20 03:25:23;;;;;;;6.20;4.63;;;19.10;76.70;;;;;;5006648;28;20025;-50
2022/07/20 03:27:52;;;;;;;7.53;4.55;;;19.00;77.20;;;;;;5006792;28;20512;-47
2022/07/20 03:30:17;;;;;;;6.93;4.78;;;19.00;77.30;;;;;;5006959;28;20030;-51
2022/07/20 03:32:43;;;;;;;9.52;4.38;;;19.00;78.30;;;;;;5007052;28;20041;-47
2022/07/20 03:35:09;;;;;;;6.97;4.55;;;19.00;79.10;;;;;;5023536;28;20051;-47
2022/07/20 03:37:35;;;;;;;8.02;4.22;;;18.90;78.80;;;;;;5015811;28;20022;-51
2022/07/20 03:40:02;;;;;;;8.10;4.85;;;18.90;78.90;;;;;;5007425;28;20022;-47
2022/07/20 03:42:27;;;;;;;6.93;4.50;;;18.80;79.00;;;;;;5006516;28;20398;-47
2022/07/20 03:44:53;;;;;;;5.95;4.40;;;18.90;78.70;;;;;;4969820;28;20039;-47
2022/07/20 03:47:18;;;;;;;8.32;4.70;;;18.90;78.10;;;;;;4966429;28;20030;-48
2022/07/20 03:49:43;;;;;;;8.07;4.68;;;18.90;77.70;;;;;;4968047;28;20034;-50
2022/07/20 03:52:09;;;;;;;8.38;4.65;;;19.00;78.30;;;;;;4968804;28;20425;-47
2022/07/20 03:54:34;;;;;;;7.80;5.00;;;19.00;78.80;;;;;;4986256;28;20062;-47
2022/07/20 03:57:00;;;;;;;7.60;4.20;;;19.00;79.00;;;;;;4987198;28;20098;-47
2022/07/20 03:59:25;;;;;;;8.00;4.85;;;19.00;79.10;;;;;;4987334;28;20022;-49
2022/07/20 04:01:51;;;;;;;7.13;4.30;;;19.00;78.70;;;;;;4987125;28;20030;-47
2022/07/20 04:04:16;;;;;;;7.70;5.10;;;19.10;78.20;;;;;;4992854;28;20022;-47
2022/07/20 04:06:42;;;;;;;5.63;4.78;;;19.10;78.80;;;;;;5040567;28;20037;-47
2022/07/20 04:09:07;;;;;;;7.40;4.68;;;19.10;78.90;;;;;;4995380;28;20582;-47
2022/07/20 04:11:33;;;;;;;6.05;4.63;;;19.10;79.70;;;;;;4986663;28;20043;-46
2022/07/20 04:13:58;;;;;;;6.88;4.47;;;19.10;79.80;;;;;;4986345;28;20524;-47
2022/07/20 04:16:24;;;;;;;13.88;5.30;;;19.00;79.40;;;;;;4986340;28;20103;-48
2022/07/20 04:18:49;;;;;;;4.93;4.38;;;19.10;77.30;;;;;;4986943;28;20503;-47
2022/07/20 04:21:15;;;;;;;7.65;5.13;;;19.10;78.20;;;;;;4986633;28;20110;-49
2022/07/20 04:23:41;;;;;;;7.55;4.72;;;19.20;78.30;;;;;;5050018;28;20313;-46
2022/07/20 04:26:06;;;;;;;8.13;4.88;;;19.20;78.10;;;;;;5018679;28;20535;-50
2022/07/20 04:28:32;;;;;;;7.22;4.97;;;19.30;78.00;;;;;;4984988;28;20018;-46
2022/07/20 04:30:58;;;;;;;7.20;4.72;;;19.30;78.90;;;;;;4985807;28;20027;-49
2022/07/20 04:33:23;;;;;;;9.38;5.18;;;19.30;78.60;;;;;;5029312;28;20400;-48
2022/07/20 04:35:49;;;;;;;8.55;6.00;;;19.40;77.60;;;;;;4988176;28;20026;-47
2022/07/20 04:38:17;;;;;;;9.80;5.45;;;19.40;76.90;;;;;;4986527;28;20501;-48
2022/07/20 04:40:43;;;;;;;11.40;5.20;;;19.50;77.80;;;;;;4985905;28;20022;-46
2022/07/20 04:43:08;;;;;;;7.47;5.28;;;19.50;76.50;;;;;;4985774;28;20023;-47
2022/07/20 04:45:34;;;;;;;10.27;5.53;;;19.50;77.60;;;;;;4985714;28;20031;-48
2022/07/20 04:48:00;;;;;;;6.32;4.75;;;19.50;77.00;;;;;;4983120;28;20104;-48
2022/07/20 04:50:26;;;;;;;8.45;5.07;;;19.50;77.80;;;;;;4983749;28;20031;-50
2022/07/20 04:52:51;;;;;;;10.07;5.05;;;19.60;78.10;;;;;;4982873;28;20117;-45
2022/07/20 04:55:17;;;;;;;7.03;5.10;;;19.60;77.40;;;;;;4981472;28;20050;-46
2022/07/20 04:57:43;;;;;;;8.10;4.65;;;19.70;77.00;;;;;;4981184;28;20027;-46
2022/07/20 05:00:09;;;;;;;6.82;4.88;;;19.70;77.10;;;;;;4972427;28;20023;-46
2022/07/20 05:02:36;;;;;;;10.20;4.68;;;19.80;77.20;;;;;;4973988;28;20028;-46
2022/07/20 05:05:01;;;;;;;8.20;5.38;;;19.90;77.40;;;;;;4984413;28;20037;-47
2022/07/20 05:07:27;;;;;;;9.88;5.30;;;19.90;76.50;;;;;;4987937;28;20034;-46
2022/07/20 05:09:52;;;;;;;7.72;4.40;;;20.00;76.00;;;;;;4986414;28;20491;-46
2022/07/20 05:12:18;;;;;;;6.60;4.65;;;20.10;76.80;;;;;;5005308;28;20073;-45
2022/07/20 05:14:43;;;;;;;7.25;5.38;;;20.00;77.20;;;;;;4986121;28;20096;-49
2022/07/20 05:17:09;;;;;;;16.88;5.72;;;20.10;76.50;;;;;;4987945;28;20403;-46
2022/07/20 05:19:36;;;;;;;6.95;4.70;;;20.10;75.80;;;;;;5024848;28;20032;-47
2022/07/20 05:22:01;;;;;;;6.97;4.10;;;20.20;76.60;;;;;;4985750;28;20019;-46
2022/07/20 05:24:27;;;;;;;6.03;4.35;;;20.30;76.50;;;;;;5003163;28;20456;-48
2022/07/20 05:26:52;;;;;;;6.43;4.10;;;20.30;75.90;;;;;;4989112;28;20030;-47
2022/07/20 05:29:18;;;;;;;9.02;4.88;;;20.40;75.60;;;;;;4988208;28;20076;-46
2022/07/20 05:31:43;;;;;;;10.30;5.10;;;20.50;75.40;;;;;;4986278;28;20530;-46
2022/07/20 05:34:09;;;;;;;7.18;4.80;;;20.60;75.10;;;;;;4990470;28;20056;-49
2022/07/20 05:36:34;;;;;;;8.27;5.00;;;20.80;74.90;;;;;;4987218;28;20299;-46
2022/07/20 05:39:00;;;;;;;8.65;4.63;;;20.80;74.70;;;;;;4990671;28;20501;-47
2022/07/20 05:41:26;;;;;;;10.70;4.72;;;21.00;74.60;;;;;;4990906;28;20034;-47
2022/07/20 05:43:51;;;;;;;8.38;5.32;;;21.10;74.30;;;;;;4988250;28;20380;-46
2022/07/20 05:46:17;;;;;;;12.35;5.90;;;21.20;74.00;;;;;;4988517;28;20115;-48
2022/07/20 05:48:43;;;;;;;7.68;5.07;;;21.40;73.50;;;;;;4987112;28;20054;-47
2022/07/20 05:51:09;;;;;;;10.43;5.35;;;21.50;73.20;;;;;;4988344;28;20105;-46
2022/07/20 05:53:34;;;;;;;8.63;4.30;;;21.50;72.90;;;;;;5038384;28;20029;-45
2022/07/20 05:56:00;;;;;;;8.65;4.78;;;21.70;73.20;;;;;;4986583;28;20019;-46
2022/07/20 05:58:25;;;;;;;8.50;4.95;;;21.80;73.10;;;;;;4988285;28;20533;-48
2022/07/20 06:00:50;;;;;;;11.68;5.22;;;21.90;72.90;;;;;;4988699;28;20145;-46
2022/07/20 06:03:16;;;;;;;8.63;5.15;;;22.00;73.80;;;;;;4999539;28;20077;-50
2022/07/20 06:05:42;;;;;;;8.52;4.95;;;22.10;73.00;;;;;;4995090;28;20059;-47
2022/07/20 06:08:07;;;;;;;10.60;4.80;;;22.20;72.40;;;;;;4988546;28;20042;-46
2022/07/20 06:10:34;;;;;;;8.07;4.50;;;22.30;72.30;;;;;;4999889;28;20037;-47
2022/07/20 06:13:01;;;;;;;10.15;4.40;;;22.50;72.20;;;;;;5027569;28;20491;-48
2022/07/20 06:15:27;;;;;;;6.93;4.45;;;22.60;71.50;;;;;;4986592;28;20038;-46
2022/07/20 06:17:54;;;;;;;6.65;4.95;;;22.70;70.90;;;;;;4988322;28;20018;-47
2022/07/20 06:20:20;;;;;;;6.75;4.28;;;22.90;70.70;;;;;;4988378;28;20030;-47
2022/07/20 06:22:46;;;;;;;6.85;4.97;;;23.00;70.30;;;;;;4988578;28;20092;-48
2022/07/20 06:25:14;;;;;;;7.35;4.50;;;23.10;69.50;;;;;;5028281;28;20376;-47
2022/07/20 06:27:40;;;;;;;8.70;4.93;;;23.30;68.80;;;;;;5006344;28;20083;-48
2022/07/20 06:30:07;;;;;;;6.47;4.43;;;23.40;68.20;;;;;;4988033;28;20027;-47
2022/07/20 06:32:33;;;;;;;8.25;4.65;;;23.60;67.70;;;;;;5003666;28;20034;-47
2022/07/20 06:34:59;;;;;;;6.20;4.10;;;23.70;67.10;;;;;;5000778;28;20069;-48
2022/07/20 06:37:24;;;;;;;5.80;4.13;;;23.90;66.70;;;;;;4992129;28;20056;-47
2022/07/20 06:39:50;;;;;;;10.73;4.43;;;24.10;66.70;;;;;;4990726;28;20022;-47
2022/07/20 06:42:16;;;;;;;7.70;4.88;;;24.30;65.20;;;;;;5040705;28;20203;-48
2022/07/20 06:44:43;;;;;;;10.43;5.15;;;24.50;65.10;;;;;;4993401;28;20030;-49
2022/07/20 06:47:09;;;;;;;10.60;5.03;;;24.70;64.60;;;;;;4987688;28;20069;-49
2022/07/20 06:49:34;;;;;;;11.25;4.40;;;25.00;63.40;;;;;;4986627;28;20066;-46
2022/07/20 06:52:00;;;;;;;8.98;4.68;;;25.10;63.60;;;;;;4984973;28;20082;-47
2022/07/20 06:54:26;;;;;;;11.77;4.45;;;25.30;63.90;;;;;;4985794;28;20079;-46
2022/07/20 06:56:52;;;;;;;9.27;4.45;;;25.50;62.30;;;;;;4989644;28;20092;-46
2022/07/20 06:59:18;;;;;;;6.53;3.72;;;25.80;60.90;;;;;;5032410;28;20024;-47
2022/07/20 07:01:43;;;;;;;11.82;4.85;;;25.90;61.00;;;;;;5089047;28;20024;-48
2022/07/20 07:04:09;;;;;;;6.97;4.60;;;26.10;61.00;;;;;;5005616;28;20041;-46
2022/07/20 07:06:35;;;;;;;8.40;4.13;;;26.20;60.90;;;;;;5016668;28;20036;-50
2022/07/20 07:09:00;;;;;;;9.63;4.70;;;26.40;60.70;;;;;;5006553;28;20030;-48
2022/07/20 07:11:26;;;;;;;7.43;3.92;;;26.60;59.70;;;;;;5007745;28;20042;-49
2022/07/20 07:13:52;;;;;;;10.55;4.70;;;26.70;59.60;;;;;;4988888;28;20054;-48
2022/07/20 07:16:18;;;;;;;8.13;4.40;;;26.90;59.10;;;;;;5001215;28;20030;-47
2022/07/20 07:18:43;;;;;;;9.35;4.97;;;27.10;57.90;;;;;;4993895;28;20030;-47
2022/07/20 07:21:09;;;;;;;6.85;4.00;;;27.20;58.50;;;;;;4987524;28;20031;-47
2022/07/20 07:23:35;;;;;;;9.27;3.88;;;27.50;57.40;;;;;;4987587;28;20027;-46
2022/07/20 07:26:00;;;;;;;9.45;4.13;;;27.50;56.80;;;;;;4986894;28;20475;-48
2022/07/20 07:28:26;;;;;;;7.72;3.95;;;27.70;56.80;;;;;;4987221;28;20161;-47
2022/07/20 07:30:51;;;;;;;6.05;4.35;;;27.80;56.60;;;;;;4987564;28;20026;-48
2022/07/20 07:33:19;;;;;;;7.05;4.00;;;28.00;56.40;;;;;;4987388;28;20087;-50
2022/07/20 07:35:44;;;;;;;6.70;4.30;;;28.10;56.90;;;;;;4988471;28;20075;-47
2022/07/20 07:38:10;;;;;;;8.55;3.92;;;28.30;56.40;;;;;;4993975;28;20395;-47
2022/07/20 07:40:36;;;;;;;10.95;4.82;;;28.40;56.40;;;;;;5078406;28;20025;-48
2022/07/20 07:43:01;;;;;;;6.60;3.70;;;28.50;55.30;;;;;;5032968;28;20030;-49
2022/07/20 07:45:27;;;;;;;7.03;4.90;;;28.60;55.80;;;;;;4986596;28;20026;-48
2022/07/20 07:47:53;;;;;;;4.60;4.07;;;28.80;55.90;;;;;;4987258;28;20120;-46
2022/07/20 07:50:18;;;;;;;8.18;4.47;;;29.10;55.50;;;;;;4987110;28;20026;-46
2022/07/20 07:52:44;;;;;;;9.15;4.30;;;29.20;54.70;;;;;;4986998;28;20031;-46
2022/07/20 07:55:10;;;;;;;5.85;4.20;;;29.40;54.60;;;;;;4986391;28;20022;-47
2022/07/20 07:57:36;;;;;;;9.32;3.95;;;29.50;54.10;;;;;;4985861;28;20026;-46
2022/07/20 08:00:03;;;;;;;6.85;4.00;;;29.70;53.60;;;;;;4986755;28;20019;-47
2022/07/20 08:02:29;;;;;;;11.55;4.07;;;29.90;53.60;;;;;;4987855;28;20031;-47
2022/07/20 08:04:54;;;;;;;8.15;4.22;;;30.10;52.70;;;;;;4994374;28;20621;-46
2022/07/20 08:07:20;;;;;;;7.68;5.00;;;30.40;52.20;;;;;;4998533;28;20506;-47
2022/07/20 08:09:45;;;;;;;7.70;4.20;;;30.60;51.10;;;;;;4988355;28;20030;-48
2022/07/20 08:12:11;;;;;;;7.95;4.20;;;31.00;51.30;;;;;;4990121;28;20590;-49
2022/07/20 08:14:36;;;;;;;7.22;3.70;;;31.20;50.80;;;;;;4989783;28;20176;-50
2022/07/20 08:17:02;;;;;;;5.95;3.80;;;31.40;51.10;;;;;;4979821;28;20663;-47
2022/07/20 08:19:28;;;;;;;6.78;3.70;;;31.80;50.40;;;;;;4978505;28;20623;-47
2022/07/20 08:21:53;;;;;;;4.88;3.67;;;32.10;50.30;;;;;;4983795;28;20027;-49
2022/07/20 08:24:19;;;;;;;9.65;4.43;;;32.50;49.50;;;;;;4989338;28;20511;-47
2022/07/20 08:26:44;;;;;;;9.25;3.60;;;33.00;48.70;;;;;;4987721;28;20045;-47
2022/07/20 08:29:10;;;;;;;7.60;3.20;;;33.80;47.80;;;;;;4987578;28;20026;-48
2022/07/20 08:31:35;;;;;;;5.80;3.35;;;34.80;46.50;;;;;;4987667;28;20036;-48
2022/07/20 08:34:01;;;;;;;6.47;3.13;;;36.00;45.10;;;;;;4991820;28;20032;-48
2022/07/20 08:36:27;;;;;;;7.10;2.92;;;37.50;42.90;;;;;;5024274;28;20407;-49
2022/07/20 08:38:53;;;;;;;4.30;2.47;;;39.00;41.20;;;;;;4986859;28;20026;-51
2022/07/20 08:41:18;;;;;;;10.77;3.58;;;39.50;39.80;;;;;;4986430;28;20038;-48
2022/07/20 08:43:44;;;;;;;7.95;3.03;;;40.50;38.90;;;;;;5004948;28;20443;-49
2022/07/20 08:46:11;;;;;;;8.25;2.78;;;41.80;37.60;;;;;;5032925;28;20026;-50
2022/07/20 08:48:40;;;;;;;5.53;2.80;;;42.40;36.60;;;;;;4978916;28;20121;-48
2022/07/20 08:51:06;;;;;;;4.80;2.70;;;41.30;36.30;;;;;;4985747;28;20030;-49
2022/07/20 08:53:31;;;;;;;5.65;2.65;;;42.50;36.40;;;;;;5002280;28;20503;-50
2022/07/20 08:55:57;;;;;;;8.10;3.03;;;43.10;35.90;;;;;;4985438;28;20030;-51
2022/07/20 08:58:22;;;;;;;4.97;2.83;;;44.00;35.60;;;;;;4985503;28;20026;-49
2022/07/20 09:00:48;;;;;;;10.27;3.40;;;44.30;34.50;;;;;;4985799;28;20101;-51
2022/07/20 09:03:14;;;;;;;5.88;2.53;;;45.70;34.00;;;;;;5008457;28;20026;-51
2022/07/20 09:05:40;;;;;;;4.15;2.70;;;45.40;33.30;;;;;;4984888;28;20031;-51
2022/07/20 09:08:12;;;;;;;5.55;2.50;;;45.90;33.40;;;;;;4987762;28;20027;-53
2022/07/20 09:10:41;;;;;;;6.88;2.70;;;46.60;32.90;;;;;;4985813;28;20030;-52
2022/07/20 09:13:13;;;;;;;10.63;2.60;;;46.40;31.50;;;;;;4984190;28;20372;-51
2022/07/20 09:15:53;;;;;;;8.35;2.75;;;47.00;31.70;;;;;;4983739;28;20334;-51
2022/07/20 09:18:24;;;;;;;6.30;2.45;;;46.60;31.30;;;;;;4985620;28;20568;-52
2022/07/20 09:20:58;;;;;;;8.70;2.40;;;46.10;31.90;;;;;;4987571;28;20075;-51
2022/07/20 09:23:30;;;;;;;9.30;2.75;;;44.80;32.80;;;;;;4992657;28;20060;-52
2022/07/20 09:25:56;;;;;;;5.85;2.67;;;45.40;31.90;;;;;;4984567;28;20059;-53
2022/07/20 09:28:32;;;;;;;4.43;2.65;;;45.40;31.90;;;;;;4993978;28;20031;-54
2022/07/20 09:30:58;;;;;;;5.55;2.78;;;45.40;32.70;;;;;;4989990;28;20059;-52
2022/07/20 09:33:26;;;;;;;4.40;2.80;;;47.10;31.30;;;;;;4990338;28;20030;-51
2022/07/20 09:35:53;;;;;;;6.82;2.88;;;45.80;30.50;;;;;;4990132;28;20031;-52
2022/07/20 09:38:18;;;;;;;5.13;2.40;;;46.40;30.60;;;;;;4988538;28;20042;-53
2022/07/20 09:40:46;;;;;;;4.82;2.53;;;47.10;30.90;;;;;;4990252;28;20019;-51
2022/07/20 09:43:36;;;;;;;3.43;2.20;;;47.50;29.80;;;;;;4991247;28;20026;-52
2022/07/20 09:46:09;;;;;;;6.50;2.55;;;46.10;29.80;;;;;;4980278;28;20472;-51
2022/07/20 09:48:40;;;;;;;3.15;2.28;;;45.60;30.40;;;;;;4979484;28;20390;-53
2022/07/20 09:51:17;;;;;;;5.72;2.72;;;45.90;31.00;;;;;;4981853;28;20030;-53
2022/07/20 09:53:42;;;;;;;8.02;2.20;;;46.10;29.70;;;;;;4989631;28;20097;-52
2022/07/20 09:56:09;;;;;;;4.68;2.80;;;46.80;30.00;;;;;;4987193;28;20105;-51
2022/07/20 09:58:35;;;;;;;4.50;2.40;;;46.40;30.00;;;;;;4995443;28;20027;-51
2022/07/20 10:01:01;;;;;;;5.82;2.50;;;44.60;30.40;;;;;;4989811;28;20021;-51
2022/07/20 10:03:29;;;;;;;3.60;2.95;;;44.70;31.00;;;;;;4989040;28;20117;-51
2022/07/20 10:05:55;;;;;;;7.13;2.75;;;44.40;30.80;;;;;;4987851;28;20517;-51
2022/07/20 10:08:23;;;;;;;5.20;2.85;;;44.50;30.50;;;;;;4989554;28;20109;-51
2022/07/20 10:10:48;;;;;;;6.83;2.77;;;44.10;30.90;;;;;;4996802;28;20441;-51
2022/07/20 10:13:14;;;;;;;7.05;2.95;;;45.00;31.00;;;;;;5000755;28;20131;-51
2022/07/20 10:15:54;;;;;;;6.40;3.10;;;43.30;30.60;;;;;;5008052;28;20124;-51
2022/07/20 10:18:19;;;;;;;3.83;3.08;;;42.10;31.90;;;;;;4992890;28;20087;-51
2022/07/20 10:20:45;;;;;;;5.32;2.75;;;42.70;32.20;;;;;;4989814;28;20026;-51
2022/07/20 10:23:22;;;;;;;5.68;2.97;;;43.90;31.70;;;;;;4989239;28;20105;-51
2022/07/20 10:25:48;;;;;;;6.10;2.80;;;44.20;31.10;;;;;;4987186;28;20022;-51
2022/07/20 10:28:23;;;;;;;8.68;3.40;;;45.80;30.70;;;;;;4988512;28;20136;-52
2022/07/20 10:30:52;;;;;;;5.22;3.10;;;45.90;29.80;;;;;;4988364;28;20030;-51
2022/07/20 10:33:19;;;;;;;4.28;3.17;;;47.10;29.70;;;;;;4989667;28;20403;-51
2022/07/20 10:35:47;;;;;;;7.03;3.03;;;47.00;29.30;;;;;;4989147;28;20463;-51
2022/07/20 10:38:18;;;;;;;3.60;2.80;;;44.80;30.10;;;;;;4989660;28;20054;-50
2022/07/20 10:44:20;;;;;;;8.82;3.42;;;45.60;30.80;;;;;;5038480;28;20079;-52
2022/07/20 10:46:47;;;;;;;6.07;3.83;;;46.90;29.60;;;;;;5011163;28;20074;-51
2022/07/20 10:49:13;;;;;;;7.88;3.80;;;46.30;29.20;;;;;;5011935;28;20026;-51
2022/07/20 10:51:39;;;;;;;5.13;3.67;;;44.90;29.70;;;;;;4989309;28;20467;-50
2022/07/20 10:54:33;;;;;;;6.65;3.55;;;44.70;29.90;;;;;;4989126;28;20099;-51
2022/07/20 10:56:59;;;;;;;5.28;3.60;;;44.50;30.10;;;;;;4981667;28;20041;-50
2022/07/20 10:59:25;;;;;;;9.43;3.67;;;43.60;29.90;;;;;;4989369;28;20027;-51
2022/07/20 11:01:51;;;;;;;7.95;4.30;;;42.20;30.50;;;;;;4989147;28;20038;-50
2022/07/20 11:08:03;;;;;;;6.32;3.95;;;43.00;31.60;;;;;;4998714;28;20114;-51
2022/07/20 11:10:30;;;;;;;10.55;3.60;;;44.80;29.70;;;;;;4999070;28;20046;-51
2022/07/20 11:12:59;;;;;;;6.55;3.28;;;45.20;29.70;;;;;;4992806;28;20022;-51
2022/07/20 11:15:36;;;;;;;6.75;3.50;;;46.40;29.20;;;;;;4987528;28;20041;-50
2022/07/20 11:18:02;;;;;;;7.07;3.15;;;46.10;28.90;;;;;;4987866;28;20027;-50
2022/07/20 11:20:28;;;;;;;11.07;3.55;;;45.50;28.70;;;;;;4997213;28;20029;-52
2022/07/20 11:22:56;;;;;;;5.45;3.42;;;44.50;29.40;;;;;;4972827;28;20022;-51
2022/07/20 11:25:24;;;;;;;10.00;3.67;;;44.90;29.70;;;;;;4988771;28;20061;-52
2022/07/20 11:28:00;;;;;;;4.72;3.15;;;45.50;30.00;;;;;;4989808;28;20037;-51
2022/07/20 11:30:33;;;;;;;6.00;3.33;;;46.80;29.70;;;;;;4989056;28;20155;-51
2022/07/20 11:32:59;;;;;;;6.10;3.47;;;46.90;29.30;;;;;;5020094;28;20105;-52
2022/07/20 11:35:24;;;;;;;9.65;3.35;;;47.20;29.10;;;;;;4988355;28;20113;-51
2022/07/20 11:37:52;;;;;;;5.78;2.95;;;45.70;29.30;;;;;;4987658;28;20113;-51
2022/07/20 11:40:18;;;;;;;14.73;3.90;;;46.30;29.70;;;;;;4985811;28;20436;-51
2022/07/20 11:43:10;;;;;;;7.75;2.72;;;46.80;29.80;;;;;;4988136;28;20046;-52
2022/07/20 11:45:37;;;;;;;6.65;3.40;;;47.30;29.50;;;;;;4985052;28;20018;-51
2022/07/20 11:48:22;;;;;;;5.57;3.00;;;46.50;29.20;;;;;;4988503;28;20038;-51
2022/07/20 11:50:48;;;;;;;8.25;3.25;;;47.80;29.30;;;;;;4988755;28;20636;-51
2022/07/20 11:53:23;;;;;;;6.43;2.97;;;47.40;29.40;;;;;;4988583;28;20026;-51
2022/07/20 11:55:49;;;;;;;6.47;3.17;;;46.80;30.00;;;;;;4987555;28;20344;-52
2022/07/20 11:58:22;;;;;;;5.53;3.15;;;47.30;29.60;;;;;;4988673;28;20037;-51
2022/07/20 12:00:47;;;;;;;6.47;3.60;;;46.70;29.70;;;;;;4988655;28;20140;-50
2022/07/20 12:03:13;;;;;;;7.10;3.72;;;44.90;29.60;;;;;;4988561;28;20109;-50
2022/07/20 12:05:39;;;;;;;8.85;3.38;;;45.60;30.20;;;;;;4987971;28;20541;-51
2022/07/20 12:08:11;;;;;;;8.48;3.60;;;46.10;29.80;;;;;;5021627;28;20035;-50
2022/07/20 12:10:40;;;;;;;11.10;3.95;;;44.80;29.70;;;;;;5012924;28;20037;-51
2022/07/20 12:13:07;;;;;;;8.02;3.22;;;44.40;30.30;;;;;;4995125;28;20034;-50
2022/07/20 12:15:33;;;;;;;5.65;3.83;;;44.60;30.00;;;;;;4968498;28;20031;-51
2022/07/20 12:18:00;;;;;;;7.88;3.45;;;43.60;30.50;;;;;;4980565;28;20064;-50
2022/07/20 12:20:26;;;;;;;12.93;3.50;;;43.40;30.50;;;;;;4988457;28;20022;-51
2022/07/20 12:22:54;;;;;;;5.40;3.72;;;42.60;30.40;;;;;;4998857;28;20152;-50
2022/07/20 12:25:20;;;;;;;7.82;3.50;;;42.60;31.10;;;;;;4987256;28;20044;-51
2022/07/20 12:27:46;;;;;;;7.50;3.47;;;42.50;31.20;;;;;;4988051;28;20034;-49
2022/07/20 12:30:37;;;;;;;6.15;3.67;;;42.70;31.00;;;;;;4987839;28;20548;-51
2022/07/20 12:33:05;;;;;;;8.00;4.10;;;42.00;31.00;;;;;;4988310;28;20035;-50
2022/07/20 12:35:31;;;;;;;7.00;3.67;;;41.30;31.20;;;;;;4987804;28;20105;-48
2022/07/20 12:37:57;;;;;;;8.32;3.90;;;41.10;31.40;;;;;;4987768;28;20408;-50
2022/07/20 12:40:43;;;;;;;6.30;3.60;;;41.40;31.90;;;;;;4987598;28;20488;-50
2022/07/20 12:43:27;;;;;;;7.18;3.50;;;41.80;31.30;;;;;;4988921;28;20031;-50
2022/07/20 12:45:54;;;;;;;6.15;3.63;;;42.10;31.50;;;;;;4984234;28;20023;-50
2022/07/20 12:48:20;;;;;;;5.53;3.30;;;41.70;31.10;;;;;;4990055;28;20027;-47
2022/07/20 12:50:45;;;;;;;5.68;3.88;;;41.90;31.50;;;;;;4990990;28;20571;-50
2022/07/20 12:53:10;;;;;;;5.50;3.08;;;41.50;31.30;;;;;;4983810;28;20517;-50